sensor_id;sensor_type;location;lat;lon;timestamp;temperature;humidity
81902;DHT22;71369;50.796;3.290;2023-07-16T00:02:04;15.30;77.30
81902;DHT22;71369;50.796;3.290;2023-07-16T00:04:35;15.30;77.50
81902;DHT22;71369;50.796;3.290;2023-07-16T00:07:31;15.30;77.90
81902;DHT22;71369;50.796;3.290;2023-07-16T00:10:20;15.20;78.60
81902;DHT22;71369;50.796;3.290;2023-07-16T00:13:03;15.10;78.40
81902;DHT22;71369;50.796;3.290;2023-07-16T00:15:32;15.10;78.80
81902;DHT22;71369;50.796;3.290;2023-07-16T00:18:00;15.00;79.10
81902;DHT22;71369;50.796;3.290;2023-07-16T00:20:28;15.00;79.40
81902;DHT22;71369;50.796;3.290;2023-07-16T00:23:06;15.00;79.10
81902;DHT22;71369;50.796;3.290;2023-07-16T00:25:56;15.00;79.00
81902;DHT22;71369;50.796;3.290;2023-07-16T00:32:05;15.00;78.10
81902;DHT22;71369;50.796;3.290;2023-07-16T00:34:47;14.90;77.50
81902;DHT22;71369;50.796;3.290;2023-07-16T00:37:20;15.00;77.20
81902;DHT22;71369;50.796;3.290;2023-07-16T00:39:49;15.00;77.20
81902;DHT22;71369;50.796;3.290;2023-07-16T00:42:17;15.00;76.80
81902;DHT22;71369;50.796;3.290;2023-07-16T00:44:43;15.20;75.60
81902;DHT22;71369;50.796;3.290;2023-07-16T00:47:09;15.40;71.10
81902;DHT22;71369;50.796;3.290;2023-07-16T00:49:38;15.70;68.60
81902;DHT22;71369;50.796;3.290;2023-07-16T00:52:16;16.00;66.60
81902;DHT22;71369;50.796;3.290;2023-07-16T00:54:46;16.20;64.80
81902;DHT22;71369;50.796;3.290;2023-07-16T00:57:17;16.50;63.30
81902;DHT22;71369;50.796;3.290;2023-07-16T00:59:43;16.60;62.30
81902;DHT22;71369;50.796;3.290;2023-07-16T01:02:09;16.70;61.90
81902;DHT22;71369;50.796;3.290;2023-07-16T01:04:35;16.70;61.80
81902;DHT22;71369;50.796;3.290;2023-07-16T01:07:14;16.70;62.00
81902;DHT22;71369;50.796;3.290;2023-07-16T01:09:45;16.70;62.00
81902;DHT22;71369;50.796;3.290;2023-07-16T01:12:17;16.70;61.80
81902;DHT22;71369;50.796;3.290;2023-07-16T01:14:47;16.70;62.40
81902;DHT22;71369;50.796;3.290;2023-07-16T01:17:13;16.60;62.20
81902;DHT22;71369;50.796;3.290;2023-07-16T01:19:46;16.60;62.50
81902;DHT22;71369;50.796;3.290;2023-07-16T01:22:43;16.50;63.20
81902;DHT22;71369;50.796;3.290;2023-07-16T01:31:18;16.40;63.50
81902;DHT22;71369;50.796;3.290;2023-07-16T01:33:48;16.40;63.20
81902;DHT22;71369;50.796;3.290;2023-07-16T01:36:23;16.50;62.60
81902;DHT22;71369;50.796;3.290;2023-07-16T01:38:50;16.50;62.00
81902;DHT22;71369;50.796;3.290;2023-07-16T01:41:16;16.60;61.40
81902;DHT22;71369;50.796;3.290;2023-07-16T01:43:44;16.60;61.50
81902;DHT22;71369;50.796;3.290;2023-07-16T01:46:10;16.50;61.20
81902;DHT22;71369;50.796;3.290;2023-07-16T01:48:41;16.60;61.20
81902;DHT22;71369;50.796;3.290;2023-07-16T01:51:10;16.50;61.00
81902;DHT22;71369;50.796;3.290;2023-07-16T01:53:59;16.60;60.70
81902;DHT22;71369;50.796;3.290;2023-07-16T01:56:32;16.60;61.10
81902;DHT22;71369;50.796;3.290;2023-07-16T01:59:04;16.60;60.80
81902;DHT22;71369;50.796;3.290;2023-07-16T02:01:33;16.70;61.00
81902;DHT22;71369;50.796;3.290;2023-07-16T02:04:02;16.60;60.90
81902;DHT22;71369;50.796;3.290;2023-07-16T02:06:31;16.60;60.50
81902;DHT22;71369;50.796;3.290;2023-07-16T02:09:05;16.60;60.90
81902;DHT22;71369;50.796;3.290;2023-07-16T02:11:31;16.50;60.90
81902;DHT22;71369;50.796;3.290;2023-07-16T02:14:00;16.50;61.40
81902;DHT22;71369;50.796;3.290;2023-07-16T02:16:32;16.50;61.70
81902;DHT22;71369;50.796;3.290;2023-07-16T02:19:06;16.40;61.50
81902;DHT22;71369;50.796;3.290;2023-07-16T02:21:32;16.50;61.90
81902;DHT22;71369;50.796;3.290;2023-07-16T02:24:01;16.50;62.00
81902;DHT22;71369;50.796;3.290;2023-07-16T02:26:40;16.40;62.00
81902;DHT22;71369;50.796;3.290;2023-07-16T02:29:13;16.40;62.20
81902;DHT22;71369;50.796;3.290;2023-07-16T02:31:47;16.30;62.60
81902;DHT22;71369;50.796;3.290;2023-07-16T02:34:15;16.20;63.10
81902;DHT22;71369;50.796;3.290;2023-07-16T02:36:46;16.10;63.70
81902;DHT22;71369;50.796;3.290;2023-07-16T02:39:18;16.20;63.50
81902;DHT22;71369;50.796;3.290;2023-07-16T02:41:55;16.30;63.10
81902;DHT22;71369;50.796;3.290;2023-07-16T02:44:22;16.30;62.60
81902;DHT22;71369;50.796;3.290;2023-07-16T02:46:51;16.40;62.60
81902;DHT22;71369;50.796;3.290;2023-07-16T02:49:19;16.40;62.80
81902;DHT22;71369;50.796;3.290;2023-07-16T02:51:47;16.50;62.70
81902;DHT22;71369;50.796;3.290;2023-07-16T02:54:18;16.60;61.70
81902;DHT22;71369;50.796;3.290;2023-07-16T02:56:47;16.70;61.50
81902;DHT22;71369;50.796;3.290;2023-07-16T02:59:15;16.70;61.80
81902;DHT22;71369;50.796;3.290;2023-07-16T03:02:00;16.70;61.70
81902;DHT22;71369;50.796;3.290;2023-07-16T03:04:29;16.70;61.80
81902;DHT22;71369;50.796;3.290;2023-07-16T03:07:11;16.70;61.70
81902;DHT22;71369;50.796;3.290;2023-07-16T03:09:37;16.80;61.80
81902;DHT22;71369;50.796;3.290;2023-07-16T03:12:03;16.80;62.40
81902;DHT22;71369;50.796;3.290;2023-07-16T03:14:32;16.80;62.00
81902;DHT22;71369;50.796;3.290;2023-07-16T03:17:01;16.80;61.80
81902;DHT22;71369;50.796;3.290;2023-07-16T03:19:27;16.90;61.70
81902;DHT22;71369;50.796;3.290;2023-07-16T03:21:55;16.80;62.10
81902;DHT22;71369;50.796;3.290;2023-07-16T03:24:21;16.80;62.20
81902;DHT22;71369;50.796;3.290;2023-07-16T03:26:47;16.80;62.10
81902;DHT22;71369;50.796;3.290;2023-07-16T03:29:24;16.70;62.50
81902;DHT22;71369;50.796;3.290;2023-07-16T03:31:51;16.70;63.10
81902;DHT22;71369;50.796;3.290;2023-07-16T03:34:24;16.70;63.10
81902;DHT22;71369;50.796;3.290;2023-07-16T03:36:53;16.60;63.70
81902;DHT22;71369;50.796;3.290;2023-07-16T03:39:21;16.60;63.90
81902;DHT22;71369;50.796;3.290;2023-07-16T03:41:46;16.70;63.10
81902;DHT22;71369;50.796;3.290;2023-07-16T03:44:12;16.80;63.10
81902;DHT22;71369;50.796;3.290;2023-07-16T03:46:38;16.90;63.40
81902;DHT22;71369;50.796;3.290;2023-07-16T03:49:07;17.00;63.30
81902;DHT22;71369;50.796;3.290;2023-07-16T03:51:36;16.90;63.20
81902;DHT22;71369;50.796;3.290;2023-07-16T03:54:08;17.00;63.10
81902;DHT22;71369;50.796;3.290;2023-07-16T03:56:40;16.90;62.60
81902;DHT22;71369;50.796;3.290;2023-07-16T03:59:06;16.80;63.10
81902;DHT22;71369;50.796;3.290;2023-07-16T04:01:37;16.80;63.10
81902;DHT22;71369;50.796;3.290;2023-07-16T04:04:09;16.70;63.20
81902;DHT22;71369;50.796;3.290;2023-07-16T04:06:35;16.70;63.50
81902;DHT22;71369;50.796;3.290;2023-07-16T04:09:01;16.60;63.60
81902;DHT22;71369;50.796;3.290;2023-07-16T04:11:28;16.60;63.80
81902;DHT22;71369;50.796;3.290;2023-07-16T04:13:54;16.50;64.10
81902;DHT22;71369;50.796;3.290;2023-07-16T04:16:29;16.40;65.00
81902;DHT22;71369;50.796;3.290;2023-07-16T04:18:54;16.30;65.50
81902;DHT22;71369;50.796;3.290;2023-07-16T04:21:23;16.20;65.70
81902;DHT22;71369;50.796;3.290;2023-07-16T04:23:51;16.10;66.40
81902;DHT22;71369;50.796;3.290;2023-07-16T04:26:24;16.10;66.70
81902;DHT22;71369;50.796;3.290;2023-07-16T04:28:50;16.00;67.10
81902;DHT22;71369;50.796;3.290;2023-07-16T04:31:16;16.10;66.60
81902;DHT22;71369;50.796;3.290;2023-07-16T04:33:42;16.10;66.90
81902;DHT22;71369;50.796;3.290;2023-07-16T04:36:07;16.10;66.90
81902;DHT22;71369;50.796;3.290;2023-07-16T04:38:35;16.00;67.00
81902;DHT22;71369;50.796;3.290;2023-07-16T04:41:02;16.10;67.00
81902;DHT22;71369;50.796;3.290;2023-07-16T04:43:36;16.10;67.40
81902;DHT22;71369;50.796;3.290;2023-07-16T04:46:05;16.10;67.60
81902;DHT22;71369;50.796;3.290;2023-07-16T04:48:31;16.20;67.40
81902;DHT22;71369;50.796;3.290;2023-07-16T04:51:00;16.20;67.50
81902;DHT22;71369;50.796;3.290;2023-07-16T04:53:27;16.30;66.90
81902;DHT22;71369;50.796;3.290;2023-07-16T04:55:52;16.30;67.10
81902;DHT22;71369;50.796;3.290;2023-07-16T04:58:18;16.30;67.20
81902;DHT22;71369;50.796;3.290;2023-07-16T05:00:43;16.30;67.40
81902;DHT22;71369;50.796;3.290;2023-07-16T05:03:09;16.40;66.80
81902;DHT22;71369;50.796;3.290;2023-07-16T05:05:35;16.40;67.00
81902;DHT22;71369;50.796;3.290;2023-07-16T05:08:01;16.30;67.50
81902;DHT22;71369;50.796;3.290;2023-07-16T05:10:27;16.30;67.50
81902;DHT22;71369;50.796;3.290;2023-07-16T05:12:54;16.40;67.00
81902;DHT22;71369;50.796;3.290;2023-07-16T05:15:20;16.40;67.10
81902;DHT22;71369;50.796;3.290;2023-07-16T05:17:45;16.50;67.10
81902;DHT22;71369;50.796;3.290;2023-07-16T05:20:11;16.50;67.70
81902;DHT22;71369;50.796;3.290;2023-07-16T05:22:37;16.50;67.30
81902;DHT22;71369;50.796;3.290;2023-07-16T05:25:04;16.60;66.90
81902;DHT22;71369;50.796;3.290;2023-07-16T05:27:30;16.70;66.60
81902;DHT22;71369;50.796;3.290;2023-07-16T05:29:56;16.70;67.00
81902;DHT22;71369;50.796;3.290;2023-07-16T05:32:22;16.80;66.60
81902;DHT22;71369;50.796;3.290;2023-07-16T05:34:47;16.80;67.00
81902;DHT22;71369;50.796;3.290;2023-07-16T05:37:13;16.80;66.60
81902;DHT22;71369;50.796;3.290;2023-07-16T05:39:39;17.00;66.50
81902;DHT22;71369;50.796;3.290;2023-07-16T05:42:05;17.10;65.70
81902;DHT22;71369;50.796;3.290;2023-07-16T05:44:31;17.30;64.90
81902;DHT22;71369;50.796;3.290;2023-07-16T05:46:58;17.50;64.60
81902;DHT22;71369;50.796;3.290;2023-07-16T05:49:25;17.60;63.90
81902;DHT22;71369;50.796;3.290;2023-07-16T05:51:52;17.60;64.30
81902;DHT22;71369;50.796;3.290;2023-07-16T05:54:17;17.60;63.80
81902;DHT22;71369;50.796;3.290;2023-07-16T05:56:43;17.50;63.90
81902;DHT22;71369;50.796;3.290;2023-07-16T05:59:09;17.60;64.20
81902;DHT22;71369;50.796;3.290;2023-07-16T06:01:35;17.60;63.90
81902;DHT22;71369;50.796;3.290;2023-07-16T06:04:01;17.70;63.90
81902;DHT22;71369;50.796;3.290;2023-07-16T06:06:28;17.90;63.90
81902;DHT22;71369;50.796;3.290;2023-07-16T06:08:55;18.20;62.70
81902;DHT22;71369;50.796;3.290;2023-07-16T06:11:21;18.30;62.60
81902;DHT22;71369;50.796;3.290;2023-07-16T06:13:47;18.40;62.50
81902;DHT22;71369;50.796;3.290;2023-07-16T06:16:12;18.70;61.00
81902;DHT22;71369;50.796;3.290;2023-07-16T06:18:38;19.00;59.90
81902;DHT22;71369;50.796;3.290;2023-07-16T06:21:04;19.00;60.80
81902;DHT22;71369;50.796;3.290;2023-07-16T06:23:29;18.90;60.20
81902;DHT22;71369;50.796;3.290;2023-07-16T06:25:56;18.90;61.30
81902;DHT22;71369;50.796;3.290;2023-07-16T06:28:22;18.80;60.80
81902;DHT22;71369;50.796;3.290;2023-07-16T06:30:48;18.80;60.80
81902;DHT22;71369;50.796;3.290;2023-07-16T06:33:14;18.80;61.00
81902;DHT22;71369;50.796;3.290;2023-07-16T06:35:40;18.70;61.10
81902;DHT22;71369;50.796;3.290;2023-07-16T06:38:05;18.60;61.30
81902;DHT22;71369;50.796;3.290;2023-07-16T06:40:31;18.80;61.70
81902;DHT22;71369;50.796;3.290;2023-07-16T06:42:57;19.00;60.50
81902;DHT22;71369;50.796;3.290;2023-07-16T06:45:22;19.10;60.60
81902;DHT22;71369;50.796;3.290;2023-07-16T06:47:49;19.10;60.00
81902;DHT22;71369;50.796;3.290;2023-07-16T06:50:14;19.70;58.80
81902;DHT22;71369;50.796;3.290;2023-07-16T06:52:40;20.70;56.30
81902;DHT22;71369;50.796;3.290;2023-07-16T06:55:06;21.20;55.60
81902;DHT22;71369;50.796;3.290;2023-07-16T06:57:32;20.80;55.40
81902;DHT22;71369;50.796;3.290;2023-07-16T06:59:57;20.80;55.90
81902;DHT22;71369;50.796;3.290;2023-07-16T07:02:23;20.90;54.80
81902;DHT22;71369;50.796;3.290;2023-07-16T07:04:50;21.00;54.80
81902;DHT22;71369;50.796;3.290;2023-07-16T07:07:16;20.90;54.80
81902;DHT22;71369;50.796;3.290;2023-07-16T07:09:42;20.90;55.80
81902;DHT22;71369;50.796;3.290;2023-07-16T07:12:08;21.10;54.20
81902;DHT22;71369;50.796;3.290;2023-07-16T07:14:33;21.30;54.00
81902;DHT22;71369;50.796;3.290;2023-07-16T07:16:59;21.30;53.90
81902;DHT22;71369;50.796;3.290;2023-07-16T07:19:25;21.00;54.20
81902;DHT22;71369;50.796;3.290;2023-07-16T07:21:51;21.20;54.40
81902;DHT22;71369;50.796;3.290;2023-07-16T07:24:17;22.50;51.50
81902;DHT22;71369;50.796;3.290;2023-07-16T07:26:42;22.60;50.70
81902;DHT22;71369;50.796;3.290;2023-07-16T07:29:08;22.90;50.80
81902;DHT22;71369;50.796;3.290;2023-07-16T07:31:35;23.10;49.20
81902;DHT22;71369;50.796;3.290;2023-07-16T07:34:01;22.80;49.80
81902;DHT22;71369;50.796;3.290;2023-07-16T07:36:28;22.90;50.20
81902;DHT22;71369;50.796;3.290;2023-07-16T07:39:09;22.30;51.30
81902;DHT22;71369;50.796;3.290;2023-07-16T07:41:35;21.70;53.70
81902;DHT22;71369;50.796;3.290;2023-07-16T07:44:01;21.70;53.10
81902;DHT22;71369;50.796;3.290;2023-07-16T07:46:26;21.40;53.50
81902;DHT22;71369;50.796;3.290;2023-07-16T07:48:53;21.40;54.40
81902;DHT22;71369;50.796;3.290;2023-07-16T07:51:20;21.60;53.60
81902;DHT22;71369;50.796;3.290;2023-07-16T07:53:46;21.70;53.60
81902;DHT22;71369;50.796;3.290;2023-07-16T07:56:11;21.60;53.60
81902;DHT22;71369;50.796;3.290;2023-07-16T07:58:37;21.40;54.50
81902;DHT22;71369;50.796;3.290;2023-07-16T08:01:08;21.50;54.10
81902;DHT22;71369;50.796;3.290;2023-07-16T08:03:35;21.40;53.50
81902;DHT22;71369;50.796;3.290;2023-07-16T08:06:00;21.30;54.30
81902;DHT22;71369;50.796;3.290;2023-07-16T08:08:27;21.30;54.80
81902;DHT22;71369;50.796;3.290;2023-07-16T08:10:54;21.40;54.20
81902;DHT22;71369;50.796;3.290;2023-07-16T08:13:20;21.70;54.10
81902;DHT22;71369;50.796;3.290;2023-07-16T08:15:46;22.40;51.80
81902;DHT22;71369;50.796;3.290;2023-07-16T08:18:13;22.40;50.80
81902;DHT22;71369;50.796;3.290;2023-07-16T08:20:39;22.30;51.80
81902;DHT22;71369;50.796;3.290;2023-07-16T08:23:06;21.80;52.70
81902;DHT22;71369;50.796;3.290;2023-07-16T08:25:32;21.70;53.40
81902;DHT22;71369;50.796;3.290;2023-07-16T08:27:57;21.60;54.10
81902;DHT22;71369;50.796;3.290;2023-07-16T08:30:23;21.40;54.40
81902;DHT22;71369;50.796;3.290;2023-07-16T08:32:49;21.20;54.70
81902;DHT22;71369;50.796;3.290;2023-07-16T08:35:16;21.00;54.90
81902;DHT22;71369;50.796;3.290;2023-07-16T08:37:45;21.10;55.70
81902;DHT22;71369;50.796;3.290;2023-07-16T08:40:12;21.20;54.90
81902;DHT22;71369;50.796;3.290;2023-07-16T08:42:39;20.80;56.00
81902;DHT22;71369;50.796;3.290;2023-07-16T08:45:10;20.50;56.10
81902;DHT22;71369;50.796;3.290;2023-07-16T08:47:41;20.30;57.00
81902;DHT22;71369;50.796;3.290;2023-07-16T08:56:51;19.60;60.20
81902;DHT22;71369;50.796;3.290;2023-07-16T09:05:09;17.50;73.10
81902;DHT22;71369;50.796;3.290;2023-07-16T09:07:35;17.30;72.40
81902;DHT22;71369;50.796;3.290;2023-07-16T09:10:03;17.10;72.50
81902;DHT22;71369;50.796;3.290;2023-07-16T09:12:29;17.10;72.80
81902;DHT22;71369;50.796;3.290;2023-07-16T09:14:55;17.20;72.20
81902;DHT22;71369;50.796;3.290;2023-07-16T09:17:22;17.30;70.90
81902;DHT22;71369;50.796;3.290;2023-07-16T09:19:53;17.30;70.80
81902;DHT22;71369;50.796;3.290;2023-07-16T09:22:20;17.40;70.60
81902;DHT22;71369;50.796;3.290;2023-07-16T09:24:46;17.70;69.30
81902;DHT22;71369;50.796;3.290;2023-07-16T09:27:13;17.90;67.80
81902;DHT22;71369;50.796;3.290;2023-07-16T09:29:39;18.10;66.20
81902;DHT22;71369;50.796;3.290;2023-07-16T09:32:05;18.30;66.20
81902;DHT22;71369;50.796;3.290;2023-07-16T09:34:31;18.50;63.80
81902;DHT22;71369;50.796;3.290;2023-07-16T09:36:58;18.50;64.10
81902;DHT22;71369;50.796;3.290;2023-07-16T09:39:25;18.60;64.30
81902;DHT22;71369;50.796;3.290;2023-07-16T09:41:51;18.80;64.50
81902;DHT22;71369;50.796;3.290;2023-07-16T09:44:17;19.10;64.50
81902;DHT22;71369;50.796;3.290;2023-07-16T09:46:44;19.70;62.90
81902;DHT22;71369;50.796;3.290;2023-07-16T09:49:10;20.60;59.90
81902;DHT22;71369;50.796;3.290;2023-07-16T09:51:41;21.20;58.30
81902;DHT22;71369;50.796;3.290;2023-07-16T09:54:08;21.70;56.10
81902;DHT22;71369;50.796;3.290;2023-07-16T09:56:46;22.50;55.00
81902;DHT22;71369;50.796;3.290;2023-07-16T09:59:17;23.40;52.30
81902;DHT22;71369;50.796;3.290;2023-07-16T10:01:47;23.60;50.60
81902;DHT22;71369;50.796;3.290;2023-07-16T10:04:18;23.60;49.40
81902;DHT22;71369;50.796;3.290;2023-07-16T10:09:41;24.20;49.10
81902;DHT22;71369;50.796;3.290;2023-07-16T10:12:18;25.20;45.90
81902;DHT22;71369;50.796;3.290;2023-07-16T10:14:56;26.10;44.70
81902;DHT22;71369;50.796;3.290;2023-07-16T10:17:23;26.20;42.30
81902;DHT22;71369;50.796;3.290;2023-07-16T10:25:02;27.40;40.40
81902;DHT22;71369;50.796;3.290;2023-07-16T10:27:32;28.50;38.20
81902;DHT22;71369;50.796;3.290;2023-07-16T10:30:00;29.10;37.90
81902;DHT22;71369;50.796;3.290;2023-07-16T10:32:31;28.50;37.70
81902;DHT22;71369;50.796;3.290;2023-07-16T10:34:58;28.40;37.40
81902;DHT22;71369;50.796;3.290;2023-07-16T10:37:27;27.50;38.40
81902;DHT22;71369;50.796;3.290;2023-07-16T10:39:55;27.20;40.30
81902;DHT22;71369;50.796;3.290;2023-07-16T10:42:23;27.80;40.60
81902;DHT22;71369;50.796;3.290;2023-07-16T10:44:54;27.90;37.80
81902;DHT22;71369;50.796;3.290;2023-07-16T10:47:24;27.40;38.30
81902;DHT22;71369;50.796;3.290;2023-07-16T10:49:51;26.80;40.40
81902;DHT22;71369;50.796;3.290;2023-07-16T10:52:18;27.50;39.70
81902;DHT22;71369;50.796;3.290;2023-07-16T10:54:43;27.90;39.70
81902;DHT22;71369;50.796;3.290;2023-07-16T11:00:31;28.90;36.00
81902;DHT22;71369;50.796;3.290;2023-07-16T11:02:57;28.10;40.10
81902;DHT22;71369;50.796;3.290;2023-07-16T11:05:25;27.40;38.80
81902;DHT22;71369;50.796;3.290;2023-07-16T11:07:51;26.20;41.20
81902;DHT22;71369;50.796;3.290;2023-07-16T11:10:17;26.10;41.20
81902;DHT22;71369;50.796;3.290;2023-07-16T11:12:43;27.10;40.20
81902;DHT22;71369;50.796;3.290;2023-07-16T11:15:10;26.80;39.50
81902;DHT22;71369;50.796;3.290;2023-07-16T11:17:38;26.60;39.20
81902;DHT22;71369;50.796;3.290;2023-07-16T11:20:08;26.40;39.20
81902;DHT22;71369;50.796;3.290;2023-07-16T11:22:37;26.20;41.30
81902;DHT22;71369;50.796;3.290;2023-07-16T11:25:04;26.10;40.10
81902;DHT22;71369;50.796;3.290;2023-07-16T11:27:34;25.50;40.70
81902;DHT22;71369;50.796;3.290;2023-07-16T11:30:00;24.70;42.80
81902;DHT22;71369;50.796;3.290;2023-07-16T11:34:54;24.90;42.60
81902;DHT22;71369;50.796;3.290;2023-07-16T11:37:20;25.10;42.90
81902;DHT22;71369;50.796;3.290;2023-07-16T11:39:49;26.70;41.10
81902;DHT22;71369;50.796;3.290;2023-07-16T11:42:20;27.60;35.80
81902;DHT22;71369;50.796;3.290;2023-07-16T11:44:49;27.20;37.50
81902;DHT22;71369;50.796;3.290;2023-07-16T11:47:17;27.50;36.60
81902;DHT22;71369;50.796;3.290;2023-07-16T11:49:43;28.50;35.50
81902;DHT22;71369;50.796;3.290;2023-07-16T11:52:11;29.00;33.30
81902;DHT22;71369;50.796;3.290;2023-07-16T11:54:37;28.50;33.20
81902;DHT22;71369;50.796;3.290;2023-07-16T11:57:03;27.80;34.60
81902;DHT22;71369;50.796;3.290;2023-07-16T11:59:29;27.30;35.70
81902;DHT22;71369;50.796;3.290;2023-07-16T12:01:54;26.60;36.00
81902;DHT22;71369;50.796;3.290;2023-07-16T12:04:23;26.20;37.10
81902;DHT22;71369;50.796;3.290;2023-07-16T12:06:52;25.60;38.10
81902;DHT22;71369;50.796;3.290;2023-07-16T12:09:18;25.10;38.80
81902;DHT22;71369;50.796;3.290;2023-07-16T12:11:44;25.20;39.10
81902;DHT22;71369;50.796;3.290;2023-07-16T12:14:10;25.10;39.10
81902;DHT22;71369;50.796;3.290;2023-07-16T12:16:37;24.90;39.60
81902;DHT22;71369;50.796;3.290;2023-07-16T12:19:03;24.80;40.50
81902;DHT22;71369;50.796;3.290;2023-07-16T12:21:28;24.70;41.50
81902;DHT22;71369;50.796;3.290;2023-07-16T12:23:54;24.80;41.90
81902;DHT22;71369;50.796;3.290;2023-07-16T12:26:20;24.70;42.40
81902;DHT22;71369;50.796;3.290;2023-07-16T12:28:48;24.60;42.80
81902;DHT22;71369;50.796;3.290;2023-07-16T12:31:14;24.40;42.90
81902;DHT22;71369;50.796;3.290;2023-07-16T12:33:43;24.50;43.60
81902;DHT22;71369;50.796;3.290;2023-07-16T12:36:09;24.90;42.60
81902;DHT22;71369;50.796;3.290;2023-07-16T12:38:34;25.10;42.40
81902;DHT22;71369;50.796;3.290;2023-07-16T12:41:00;25.10;41.30
81902;DHT22;71369;50.796;3.290;2023-07-16T12:43:28;25.00;41.30
81902;DHT22;71369;50.796;3.290;2023-07-16T12:45:54;24.80;41.90
81902;DHT22;71369;50.796;3.290;2023-07-16T12:48:20;24.80;43.30
81902;DHT22;71369;50.796;3.290;2023-07-16T12:50:45;25.20;42.40
81902;DHT22;71369;50.796;3.290;2023-07-16T12:53:11;25.60;41.80
81902;DHT22;71369;50.796;3.290;2023-07-16T12:55:43;25.60;41.20
81902;DHT22;71369;50.796;3.290;2023-07-16T12:58:08;25.30;41.30
81902;DHT22;71369;50.796;3.290;2023-07-16T13:00:34;25.10;42.00
81902;DHT22;71369;50.796;3.290;2023-07-16T13:03:00;24.70;42.10
81902;DHT22;71369;50.796;3.290;2023-07-16T13:05:26;24.80;43.30
81902;DHT22;71369;50.796;3.290;2023-07-16T13:07:52;25.20;41.50
81902;DHT22;71369;50.796;3.290;2023-07-16T13:10:18;25.20;41.70
81902;DHT22;71369;50.796;3.290;2023-07-16T13:12:44;24.70;42.00
81902;DHT22;71369;50.796;3.290;2023-07-16T13:15:10;24.40;43.10
81902;DHT22;71369;50.796;3.290;2023-07-16T13:17:35;24.20;44.30
81902;DHT22;71369;50.796;3.290;2023-07-16T13:20:02;24.10;44.30
81902;DHT22;71369;50.796;3.290;2023-07-16T13:22:31;25.20;44.00
81902;DHT22;71369;50.796;3.290;2023-07-16T13:24:56;26.40;40.10
81902;DHT22;71369;50.796;3.290;2023-07-16T13:27:23;27.20;39.10
81902;DHT22;71369;50.796;3.290;2023-07-16T13:29:49;27.20;37.70
81902;DHT22;71369;50.796;3.290;2023-07-16T13:32:15;26.70;39.20
81902;DHT22;71369;50.796;3.290;2023-07-16T13:34:41;26.30;40.00
81902;DHT22;71369;50.796;3.290;2023-07-16T13:37:07;25.80;40.60
81902;DHT22;71369;50.796;3.290;2023-07-16T13:39:33;25.50;40.80
81902;DHT22;71369;50.796;3.290;2023-07-16T13:41:59;25.20;42.40
81902;DHT22;71369;50.796;3.290;2023-07-16T13:44:24;24.80;43.80
81902;DHT22;71369;50.796;3.290;2023-07-16T13:46:50;24.70;42.90
81902;DHT22;71369;50.796;3.290;2023-07-16T13:49:16;24.50;42.90
81902;DHT22;71369;50.796;3.290;2023-07-16T13:51:42;24.10;43.20
81902;DHT22;71369;50.796;3.290;2023-07-16T13:54:11;23.60;45.20
81902;DHT22;71369;50.796;3.290;2023-07-16T13:56:39;23.50;44.90
81902;DHT22;71369;50.796;3.290;2023-07-16T13:59:05;23.30;45.80
81902;DHT22;71369;50.796;3.290;2023-07-16T14:01:33;23.10;46.20
81902;DHT22;71369;50.796;3.290;2023-07-16T14:03:58;22.70;48.60
81902;DHT22;71369;50.796;3.290;2023-07-16T14:06:27;22.70;48.40
81902;DHT22;71369;50.796;3.290;2023-07-16T14:08:52;22.70;49.20
81902;DHT22;71369;50.796;3.290;2023-07-16T14:11:21;22.50;49.20
81902;DHT22;71369;50.796;3.290;2023-07-16T14:13:47;22.30;49.90
81902;DHT22;71369;50.796;3.290;2023-07-16T14:16:23;21.80;54.10
81902;DHT22;71369;50.796;3.290;2023-07-16T14:18:51;21.10;58.20
81902;DHT22;71369;50.796;3.290;2023-07-16T14:21:17;20.70;60.40
81902;DHT22;71369;50.796;3.290;2023-07-16T14:23:43;20.40;62.40
81902;DHT22;71369;50.796;3.290;2023-07-16T14:26:09;20.30;62.20
81902;DHT22;71369;50.796;3.290;2023-07-16T14:28:35;20.20;60.70
81902;DHT22;71369;50.796;3.290;2023-07-16T14:31:01;20.00;56.80
81902;DHT22;71369;50.796;3.290;2023-07-16T14:33:26;20.00;58.70
81902;DHT22;71369;50.796;3.290;2023-07-16T14:35:53;19.90;59.20
81902;DHT22;71369;50.796;3.290;2023-07-16T14:38:18;19.80;60.20
81902;DHT22;71369;50.796;3.290;2023-07-16T14:40:46;19.80;61.10
81902;DHT22;71369;50.796;3.290;2023-07-16T14:43:13;19.80;60.20
81902;DHT22;71369;50.796;3.290;2023-07-16T14:45:41;19.80;60.30
81902;DHT22;71369;50.796;3.290;2023-07-16T14:48:07;19.80;59.20
81902;DHT22;71369;50.796;3.290;2023-07-16T14:50:37;20.00;59.00
81902;DHT22;71369;50.796;3.290;2023-07-16T14:53:04;20.10;58.70
81902;DHT22;71369;50.796;3.290;2023-07-16T14:55:31;20.10;56.80
81902;DHT22;71369;50.796;3.290;2023-07-16T14:57:59;20.10;57.10
81902;DHT22;71369;50.796;3.290;2023-07-16T15:00:24;20.10;57.00
81902;DHT22;71369;50.796;3.290;2023-07-16T15:02:51;20.10;56.40
81902;DHT22;71369;50.796;3.290;2023-07-16T15:05:17;20.20;56.90
81902;DHT22;71369;50.796;3.290;2023-07-16T15:07:43;20.30;57.50
81902;DHT22;71369;50.796;3.290;2023-07-16T15:10:09;20.40;57.50
81902;DHT22;71369;50.796;3.290;2023-07-16T15:12:35;20.50;57.10
81902;DHT22;71369;50.796;3.290;2023-07-16T15:15:00;20.70;56.60
81902;DHT22;71369;50.796;3.290;2023-07-16T15:17:26;20.80;55.30
81902;DHT22;71369;50.796;3.290;2023-07-16T15:19:53;20.80;57.50
81902;DHT22;71369;50.796;3.290;2023-07-16T15:22:18;20.60;57.10
81902;DHT22;71369;50.796;3.290;2023-07-16T15:24:47;20.50;59.20
81902;DHT22;71369;50.796;3.290;2023-07-16T15:27:12;20.30;60.40
81902;DHT22;71369;50.796;3.290;2023-07-16T15:29:38;20.30;61.40
81902;DHT22;71369;50.796;3.290;2023-07-16T15:32:05;20.40;61.60
81902;DHT22;71369;50.796;3.290;2023-07-16T15:34:31;20.50;62.70
81902;DHT22;71369;50.796;3.290;2023-07-16T15:36:57;20.40;60.70
81902;DHT22;71369;50.796;3.290;2023-07-16T15:39:23;20.30;60.10
81902;DHT22;71369;50.796;3.290;2023-07-16T15:41:48;20.30;60.50
81902;DHT22;71369;50.796;3.290;2023-07-16T15:44:15;20.50;62.30
81902;DHT22;71369;50.796;3.290;2023-07-16T15:46:42;20.70;60.90
81902;DHT22;71369;50.796;3.290;2023-07-16T15:49:08;20.90;60.00
81902;DHT22;71369;50.796;3.290;2023-07-16T15:51:33;21.00;59.20
81902;DHT22;71369;50.796;3.290;2023-07-16T15:54:01;21.10;60.00
81902;DHT22;71369;50.796;3.290;2023-07-16T15:56:27;21.30;58.90
81902;DHT22;71369;50.796;3.290;2023-07-16T15:58:53;21.40;59.70
81902;DHT22;71369;50.796;3.290;2023-07-16T16:01:18;21.60;56.50
81902;DHT22;71369;50.796;3.290;2023-07-16T16:03:44;21.70;57.60
81902;DHT22;71369;50.796;3.290;2023-07-16T16:06:11;22.00;56.80
81902;DHT22;71369;50.796;3.290;2023-07-16T16:08:37;22.30;55.40
81902;DHT22;71369;50.796;3.290;2023-07-16T16:11:03;22.40;53.50